Time;durP1;ratioP1;P1;durP2;ratioP2;P2;SDS_P1;SDS_P2;PMS_P1;PMS_P2;Temp;Humidity;BMP_temperature;BMP_pressure;BME280_temperature;BME280_humidity;BME280_pressure;Samples;Min_cycle;Max_cycle;Signal;HPM_P1;HPM_P2
2021/10/28 00:14:35;;;;;;;48.28;29.48;;;;;;;;;;5067660;28;20051;-65
2021/10/28 00:17:08;;;;;;;50.00;28.08;;;;;;;;;;5064310;28;20109;-65
2021/10/28 00:19:35;;;;;;;45.75;27.63;;;;;;;;;;5070645;28;20052;-65
2021/10/28 00:22:02;;;;;;;46.35;29.98;;;;;;;;;;5072053;28;20040;-64
2021/10/28 00:24:28;;;;;;;42.92;27.30;;;;;;;;;;5064783;28;20437;-65
2021/10/28 00:26:54;;;;;;;47.35;28.95;;;;;;;;;;5067206;28;20053;-64
2021/10/28 00:29:23;;;;;;;48.38;28.65;;;;;;;;;;5066396;28;20100;-65
2021/10/28 00:31:49;;;;;;;42.63;26.90;;;;;;;;;;5062859;28;20045;-65
2021/10/28 00:34:16;;;;;;;46.85;28.02;;;;;;;;;;5063884;28;20056;-65
2021/10/28 00:36:43;;;;;;;43.60;27.98;;;;;;;;;;5064311;28;20140;-65
2021/10/28 00:39:09;;;;;;;43.42;27.10;;;;;;;;;;5063861;28;20041;-64
2021/10/28 00:41:36;;;;;;;49.00;29.13;;;;;;;;;;5064332;28;20045;-64
2021/10/28 00:44:03;;;;;;;53.93;29.93;;;;;;;;;;5075298;28;20044;-64
2021/10/28 00:46:33;;;;;;;51.35;30.90;;;;;;;;;;5063523;28;20056;-64
2021/10/28 00:49:00;;;;;;;48.97;28.67;;;;;;;;;;5064203;28;20047;-64
2021/10/28 00:51:27;;;;;;;48.92;28.60;;;;;;;;;;5067467;28;20049;-64
2021/10/28 00:53:54;;;;;;;46.97;29.67;;;;;;;;;;5065180;28;20041;-64
2021/10/28 00:56:22;;;;;;;47.33;26.33;;;;;;;;;;5062848;28;20053;-64
2021/10/28 00:58:50;;;;;;;49.45;29.05;;;;;;;;;;5066724;28;20041;-64
2021/10/28 01:01:16;;;;;;;45.80;28.52;;;;;;;;;;5078780;28;20049;-64
2021/10/28 01:03:43;;;;;;;49.17;28.85;;;;;;;;;;5068252;28;20056;-64
2021/10/28 01:06:10;;;;;;;48.20;28.90;;;;;;;;;;5072550;28;20037;-64
2021/10/28 01:08:38;;;;;;;56.65;30.58;;;;;;;;;;5063483;28;20429;-65
2021/10/28 01:11:05;;;;;;;49.78;28.73;;;;;;;;;;5062825;28;20055;-64
2021/10/28 01:13:32;;;;;;;51.30;29.10;;;;;;;;;;5063689;28;20110;-64
2021/10/28 01:15:58;;;;;;;48.55;24.50;;;;;;;;;;5064432;28;20064;-64
2021/10/28 01:18:24;;;;;;;51.75;29.00;;;;;;;;;;5063976;28;20437;-63
2021/10/28 01:20:52;;;;;;;51.63;30.45;;;;;;;;;;5062983;28;20576;-64
2021/10/28 01:23:20;;;;;;;;;;;;;;;;;;5071415;28;20117;-63
2021/10/28 01:26:00;;;;;;;49.75;30.30;;;;;;;;;;5067899;28;19929;-65
2021/10/28 01:28:27;;;;;;;43.15;25.40;;;;;;;;;;5067066;28;20049;-63
2021/10/28 01:30:55;;;;;;;46.10;28.63;;;;;;;;;;5063240;28;20044;-64
2021/10/28 01:33:22;;;;;;;46.20;26.75;;;;;;;;;;5063855;28;20057;-64
2021/10/28 01:35:49;;;;;;;51.28;28.63;;;;;;;;;;5068636;28;20057;-63
2021/10/28 01:38:16;;;;;;;47.28;28.25;;;;;;;;;;5063035;28;20044;-63
2021/10/28 01:40:43;;;;;;;45.88;28.60;;;;;;;;;;5072428;28;20177;-64
2021/10/28 01:43:09;;;;;;;59.03;30.20;;;;;;;;;;5066340;28;20037;-63
2021/10/28 01:45:35;;;;;;;52.35;29.38;;;;;;;;;;5063282;28;21052;-63
2021/10/28 01:48:03;;;;;;;56.65;29.17;;;;;;;;;;5066308;28;20052;-63
2021/10/28 01:50:29;;;;;;;56.53;30.73;;;;;;;;;;5069095;28;20048;-63
2021/10/28 01:52:56;;;;;;;57.97;28.90;;;;;;;;;;5066859;28;20570;-63
2021/10/28 01:55:22;;;;;;;52.83;30.20;;;;;;;;;;5078563;28;20519;-63
2021/10/28 01:57:48;;;;;;;58.75;29.73;;;;;;;;;;5065873;28;20045;-63
2021/10/28 02:00:19;;;;;;;59.28;31.45;;;;;;;;;;5064346;28;20070;-64
2021/10/28 02:02:45;;;;;;;57.67;31.23;;;;;;;;;;5066181;28;20048;-64
2021/10/28 02:05:12;;;;;;;57.28;32.67;;;;;;;;;;5066181;28;20052;-64
2021/10/28 02:07:39;;;;;;;63.37;29.67;;;;;;;;;;5073053;28;20044;-64
2021/10/28 02:10:06;;;;;;;53.40;31.00;;;;;;;;;;5070086;28;20041;-65
2021/10/28 02:12:33;;;;;;;58.28;31.67;;;;;;;;;;5066316;28;20048;-64
2021/10/28 02:15:00;;;;;;;58.75;32.15;;;;;;;;;;5086036;28;20084;-64
2021/10/28 02:17:26;;;;;;;61.33;30.63;;;;;;;;;;5067665;28;20045;-64
2021/10/28 02:19:52;;;;;;;58.42;29.52;;;;;;;;;;5065930;28;20048;-64
2021/10/28 02:22:18;;;;;;;58.67;31.55;;;;;;;;;;5083430;28;20486;-64
2021/10/28 02:24:44;;;;;;;55.03;28.88;;;;;;;;;;5066574;28;20136;-64
2021/10/28 02:27:11;;;;;;;67.15;31.20;;;;;;;;;;5067219;28;20076;-64
2021/10/28 02:29:38;;;;;;;56.40;30.50;;;;;;;;;;5066454;28;20400;-64
2021/10/28 02:32:04;;;;;;;60.28;31.73;;;;;;;;;;5066320;28;20341;-64
2021/10/28 02:34:30;;;;;;;59.00;31.77;;;;;;;;;;5065541;28;20057;-64
2021/10/28 02:36:56;;;;;;;51.38;28.67;;;;;;;;;;5067574;28;20102;-64
2021/10/28 02:39:22;;;;;;;58.50;29.02;;;;;;;;;;5066115;28;20060;-64
2021/10/28 02:41:49;;;;;;;53.60;30.80;;;;;;;;;;5069916;28;20171;-64
2021/10/28 02:44:15;;;;;;;50.28;28.30;;;;;;;;;;5071926;28;20048;-64
2021/10/28 02:46:42;;;;;;;54.28;29.88;;;;;;;;;;5074306;28;20044;-64
2021/10/28 02:49:11;;;;;;;57.55;30.40;;;;;;;;;;5071550;28;20059;-64
2021/10/28 02:51:38;;;;;;;64.03;30.65;;;;;;;;;;5067209;28;20049;-64
2021/10/28 02:54:05;;;;;;;54.92;29.13;;;;;;;;;;5065418;28;20045;-64
2021/10/28 02:56:31;;;;;;;50.97;28.58;;;;;;;;;;5064660;28;20045;-64
2021/10/28 02:58:57;;;;;;;61.45;29.90;;;;;;;;;;5069067;28;20094;-64
2021/10/28 03:01:24;;;;;;;53.63;27.83;;;;;;;;;;5067560;28;20053;-64
2021/10/28 03:03:50;;;;;;;47.78;25.98;;;;;;;;;;5066090;28;20037;-64
2021/10/28 03:06:16;;;;;;;51.90;27.48;;;;;;;;;;5065584;28;20067;-64
2021/10/28 03:08:43;;;;;;;38.65;20.17;;;;;;;;;;5064901;28;20055;-64
2021/10/28 03:11:09;;;;;;;46.63;26.52;;;;;;;;;;5072747;28;20063;-64
2021/10/28 03:13:37;;;;;;;54.97;27.38;;;;;;;;;;5065249;28;20080;-64
2021/10/28 03:27:01;;;;;;;45.88;27.40;;;;;;;;;;5042143;28;20097;-64
2021/10/28 03:29:27;;;;;;;44.97;27.42;;;;;;;;;;5041783;28;20096;-64
2021/10/28 03:31:53;;;;;;;50.53;26.65;;;;;;;;;;5042716;28;20041;-64
2021/10/28 03:34:20;;;;;;;45.90;26.63;;;;;;;;;;5040795;28;20118;-64
2021/10/28 03:36:57;;;;;;;47.88;26.73;;;;;;;;;;5029667;28;20049;-64
2021/10/28 03:47:28;;;;;;;43.08;24.67;;;;;;;;;;5029558;28;20113;-64
2021/10/28 04:08:29;;;;;;;43.17;23.45;;;;;;;;;;5064229;28;20513;-64
2021/10/28 04:19:36;;;;;;;40.67;22.92;;;;;;;;;;5077476;28;20040;-64
2021/10/28 04:21:54;;;;;;;34.30;22.13;;;;;;;;;;5071766;28;20074;-64
2021/10/28 04:29:34;;;;;;;41.10;23.45;;;;;;;;;;5065052;28;20052;-64
2021/10/28 04:32:00;;;;;;;33.17;21.10;;;;;;;;;;5064278;28;20107;-64
2021/10/28 04:34:26;;;;;;;39.03;22.83;;;;;;;;;;5089333;28;20385;-64
2021/10/28 04:36:53;;;;;;;37.67;21.58;;;;;;;;;;5075454;28;20056;-64
2021/10/28 04:39:20;;;;;;;34.78;21.85;;;;;;;;;;5066670;28;20408;-64
2021/10/28 04:41:46;;;;;;;35.22;21.25;;;;;;;;;;5063887;28;20045;-64
2021/10/28 04:44:12;;;;;;;39.55;23.85;;;;;;;;;;5063803;28;20045;-64
2021/10/28 04:46:39;;;;;;;39.83;23.30;;;;;;;;;;5068233;28;20128;-64
2021/10/28 04:49:05;;;;;;;36.58;21.58;;;;;;;;;;5074272;28;20037;-64
2021/10/28 04:51:31;;;;;;;43.97;23.42;;;;;;;;;;5071699;28;20045;-65
2021/10/28 04:53:58;;;;;;;36.40;21.38;;;;;;;;;;5071049;28;20041;-64
2021/10/28 04:56:24;;;;;;;32.40;21.30;;;;;;;;;;5072255;28;20071;-64
2021/10/28 04:58:50;;;;;;;42.78;23.23;;;;;;;;;;5063785;28;20037;-64
2021/10/28 05:01:16;;;;;;;39.25;21.25;;;;;;;;;;5063913;28;20052;-64
2021/10/28 05:03:42;;;;;;;30.90;20.67;;;;;;;;;;5064206;28;20068;-64
2021/10/28 05:06:08;;;;;;;31.48;19.00;;;;;;;;;;5068359;28;20048;-64
2021/10/28 05:08:34;;;;;;;38.63;19.88;;;;;;;;;;5077056;28;20109;-65
2021/10/28 05:11:01;;;;;;;31.25;19.73;;;;;;;;;;5063666;28;20041;-64
2021/10/28 05:13:27;;;;;;;35.20;20.33;;;;;;;;;;5072707;28;20052;-64
2021/10/28 05:15:54;;;;;;;38.10;21.25;;;;;;;;;;5069851;28;20080;-64
2021/10/28 05:18:23;;;;;;;34.25;19.02;;;;;;;;;;5071343;28;20056;-64
2021/10/28 05:20:49;;;;;;;35.78;19.77;;;;;;;;;;5065214;28;20047;-64
2021/10/28 05:23:15;;;;;;;28.58;18.08;;;;;;;;;;5072963;28;20040;-64
2021/10/28 05:25:41;;;;;;;29.63;17.83;;;;;;;;;;5080228;28;20047;-64
2021/10/28 05:28:08;;;;;;;33.35;19.35;;;;;;;;;;5064809;28;20045;-64
2021/10/28 05:30:34;;;;;;;32.17;18.42;;;;;;;;;;5075146;28;20410;-64
2021/10/28 05:33:01;;;;;;;26.45;18.38;;;;;;;;;;5072944;28;20045;-64
2021/10/28 05:35:27;;;;;;;30.77;18.30;;;;;;;;;;5064066;28;20045;-64
2021/10/28 05:37:54;;;;;;;30.10;18.73;;;;;;;;;;5072487;28;20048;-64
2021/10/28 05:40:20;;;;;;;29.80;17.83;;;;;;;;;;5066921;28;20041;-64
2021/10/28 05:42:48;;;;;;;31.10;19.27;;;;;;;;;;5068111;28;20068;-64
2021/10/28 05:45:15;;;;;;;27.15;17.08;;;;;;;;;;5067622;28;20064;-64
2021/10/28 05:47:42;;;;;;;33.17;17.77;;;;;;;;;;5075746;28;20048;-64
2021/10/28 05:50:12;;;;;;;29.92;18.50;;;;;;;;;;5072367;28;20301;-64
2021/10/28 05:52:38;;;;;;;28.85;17.08;;;;;;;;;;5067545;28;20128;-65
2021/10/28 05:55:05;;;;;;;30.90;16.65;;;;;;;;;;5078599;28;20044;-64
2021/10/28 05:57:31;;;;;;;30.77;17.17;;;;;;;;;;5069442;28;20044;-64
2021/10/28 05:59:58;;;;;;;26.95;17.23;;;;;;;;;;5068340;28;20104;-64
2021/10/28 06:02:24;;;;;;;26.30;17.13;;;;;;;;;;5066836;28;20049;-64
2021/10/28 06:04:50;;;;;;;28.45;17.13;;;;;;;;;;5069767;28;20045;-64
2021/10/28 06:07:16;;;;;;;31.80;18.55;;;;;;;;;;5067999;28;20705;-65
2021/10/28 06:09:43;;;;;;;25.38;17.80;;;;;;;;;;5066019;28;20471;-64
2021/10/28 06:12:10;;;;;;;30.88;17.58;;;;;;;;;;5068567;28;20040;-64
2021/10/28 06:14:36;;;;;;;27.98;16.45;;;;;;;;;;5066966;28;20106;-64
2021/10/28 06:17:12;;;;;;;32.03;16.98;;;;;;;;;;5075951;28;20078;-65
2021/10/28 06:19:38;;;;;;;27.33;17.30;;;;;;;;;;5066550;28;20096;-64
2021/10/28 06:22:04;;;;;;;27.00;17.13;;;;;;;;;;5066440;28;20041;-65
2021/10/28 06:24:31;;;;;;;27.02;17.98;;;;;;;;;;5066545;28;20044;-65
2021/10/28 06:26:57;;;;;;;29.33;18.27;;;;;;;;;;5066561;28;20041;-64
2021/10/28 06:29:23;;;;;;;24.05;16.65;;;;;;;;;;5080501;28;20048;-64
2021/10/28 06:31:50;;;;;;;29.02;17.50;;;;;;;;;;5066591;28;20041;-64
2021/10/28 06:34:25;;;;;;;30.70;16.20;;;;;;;;;;5068410;28;20049;-65
2021/10/28 06:36:52;;;;;;;28.67;18.67;;;;;;;;;;5066477;28;20060;-64
2021/10/28 06:39:18;;;;;;;26.52;17.83;;;;;;;;;;5074997;28;20059;-64
2021/10/28 06:41:44;;;;;;;26.52;17.23;;;;;;;;;;5065459;28;20045;-64
2021/10/28 06:44:10;;;;;;;32.10;18.33;;;;;;;;;;5066582;28;20586;-65
2021/10/28 06:46:37;;;;;;;25.63;16.88;;;;;;;;;;5072182;28;20057;-64
2021/10/28 06:49:06;;;;;;;30.55;17.80;;;;;;;;;;5069291;28;20048;-65
2021/10/28 06:51:40;;;;;;;33.40;17.48;;;;;;;;;;5068789;28;20572;-65
2021/10/28 06:54:10;;;;;;;28.92;16.92;;;;;;;;;;5076264;28;20050;-65
2021/10/28 07:04:35;;;;;;;27.00;17.33;;;;;;;;;;5074722;28;20096;-65
2021/10/28 07:07:01;;;;;;;29.15;16.15;;;;;;;;;;5075879;28;20051;-65
2021/10/28 07:09:36;;;;;;;28.23;18.00;;;;;;;;;;5081950;28;20045;-64
2021/10/28 07:14:32;;;;;;;27.70;16.52;;;;;;;;;;5078150;28;21126;-64
2021/10/28 07:24:56;;;;;;;24.85;16.30;;;;;;;;;;5080508;28;20048;-65
2021/10/28 07:28:38;;;;;;;22.92;17.00;;;;;;;;;;5079776;28;20059;-65
2021/10/28 07:30:39;;;;;;;24.65;17.13;;;;;;;;;;5077932;28;20075;-65
2021/10/28 07:33:39;;;;;;;24.70;15.95;;;;;;;;;;5078492;28;20123;-65
2021/10/28 07:36:37;;;;;;;22.92;15.05;;;;;;;;;;5084233;28;20091;-65
2021/10/28 07:55:58;;;;;;;20.88;14.35;;;;;;;;;;5081120;28;20105;-65
2021/10/28 08:14:51;;;;;;;21.30;13.18;;;;;;;;;;5074831;28;20048;-65
2021/10/28 08:20:14;;;;;;;17.17;11.68;;;;;;;;;;5085113;28;20049;-63
2021/10/28 08:22:43;;;;;;;19.30;11.65;;;;;;;;;;5082493;28;20051;-67
2021/10/28 08:30:40;;;;;;;20.35;12.10;;;;;;;;;;5077636;28;20408;-67
2021/10/28 08:33:06;;;;;;;20.00;11.65;;;;;;;;;;5082255;28;20072;-67
2021/10/28 08:35:33;;;;;;;17.90;10.48;;;;;;;;;;5080219;28;20516;-67
2021/10/28 08:38:01;;;;;;;17.10;10.50;;;;;;;;;;5083612;28;20040;-67
2021/10/28 08:40:27;;;;;;;14.65;10.05;;;;;;;;;;5080696;28;20048;-67
2021/10/28 08:42:54;;;;;;;16.33;10.43;;;;;;;;;;5079785;28;20074;-67
2021/10/28 08:45:21;;;;;;;18.52;11.55;;;;;;;;;;5082938;28;20052;-67
2021/10/28 08:47:54;;;;;;;16.38;10.93;;;;;;;;;;5079756;28;20040;-67
2021/10/28 08:50:48;;;;;;;17.98;10.88;;;;;;;;;;5077339;28;20053;-67
2021/10/28 08:55:59;;;;;;;18.13;9.10;;;;;;;;;;5059149;28;20044;-68
2021/10/28 09:26:55;;;;;;;13.63;9.02;;;;;;;;;;5072730;28;20104;-67
2021/10/28 09:31:58;;;;;;;14.45;8.10;;;;;;;;;;5093678;28;20255;-65
2021/10/28 09:49:50;;;;;;;10.75;7.90;;;;;;;;;;5082689;28;20131;-66
2021/10/28 09:51:18;;;;;;;17.00;7.18;;;;;;;;;;5098255;28;20119;-66
2021/10/28 09:53:54;;;;;;;;;;;;;;;;;;5073910;28;20040;-67
2021/10/28 09:59:21;;;;;;;13.05;7.40;;;;;;;;;;5076578;28;20161;-67
2021/10/28 10:01:47;;;;;;;12.43;7.38;;;;;;;;;;5083030;28;20069;-63
2021/10/28 10:04:15;;;;;;;13.13;7.60;;;;;;;;;;5080440;28;20097;-61
2021/10/28 10:06:43;;;;;;;16.10;7.32;;;;;;;;;;5075545;28;20076;-68
2021/10/28 10:09:09;;;;;;;11.38;6.97;;;;;;;;;;5071410;28;20508;-66
2021/10/28 10:11:36;;;;;;;15.25;7.63;;;;;;;;;;5089713;28;20080;-65
2021/10/28 10:14:02;;;;;;;10.30;7.05;;;;;;;;;;5095254;28;20047;-66
2021/10/28 10:16:32;;;;;;;13.52;7.55;;;;;;;;;;5080985;28;20119;-67
2021/10/28 10:19:01;;;;;;;9.80;7.30;;;;;;;;;;5077342;28;20488;-70
2021/10/28 10:21:37;;;;;;;11.75;7.13;;;;;;;;;;5083089;28;20045;-67
2021/10/28 12:25:17;;;;;;;5.88;4.43;;;;;;;;;;5088544;28;20048;-68
2021/10/28 14:27:38;;;;;;;3.78;2.38;;;;;;;;;;5061030;28;20052;-74
2021/10/28 15:30:14;;;;;;;7.07;4.70;;;;;;;;;;5083102;28;20102;-61
2021/10/28 15:33:30;;;;;;;9.43;4.88;;;;;;;;;;5083496;28;20460;-63
2021/10/28 15:35:42;;;;;;;9.10;5.78;;;;;;;;;;5075232;28;20416;-63
2021/10/28 15:40:45;;;;;;;10.80;5.43;;;;;;;;;;5078026;28;20078;-61
2021/10/28 16:23:26;;;;;;;9.88;5.63;;;;;;;;;;5081192;28;20051;-65
2021/10/28 16:25:52;;;;;;;13.93;5.97;;;;;;;;;;5070604;28;20049;-65
2021/10/28 16:28:19;;;;;;;12.55;7.10;;;;;;;;;;5076311;28;20037;-65
2021/10/28 16:30:46;;;;;;;10.57;6.40;;;;;;;;;;5081730;28;20073;-65
2021/10/28 16:33:13;;;;;;;11.60;6.05;;;;;;;;;;5083417;28;20093;-65
2021/10/28 16:35:40;;;;;;;14.18;6.45;;;;;;;;;;5075506;28;20040;-65
2021/10/28 16:38:08;;;;;;;12.48;6.13;;;;;;;;;;5073828;28;20041;-66
2021/10/28 16:40:35;;;;;;;8.70;6.28;;;;;;;;;;5074319;28;20804;-63
2021/10/28 16:43:01;;;;;;;11.80;6.53;;;;;;;;;;5078365;28;20037;-64
2021/10/28 16:45:27;;;;;;;13.00;6.97;;;;;;;;;;5072399;28;20558;-64
2021/10/28 16:47:53;;;;;;;10.93;6.50;;;;;;;;;;5071973;28;20072;-64
2021/10/28 16:50:19;;;;;;;11.45;6.45;;;;;;;;;;5074567;28;20082;-64
2021/10/28 16:52:45;;;;;;;9.45;6.60;;;;;;;;;;5073554;28;20040;-63
2021/10/28 16:55:12;;;;;;;10.25;6.20;;;;;;;;;;5072980;28;20131;-66
2021/10/28 16:57:38;;;;;;;12.70;6.65;;;;;;;;;;5075205;28;20052;-66
2021/10/28 17:00:06;;;;;;;9.75;6.32;;;;;;;;;;5078492;28;20028;-65
2021/10/28 17:02:32;;;;;;;;;;;;;;;;;;5073314;28;20357;-65
2021/10/28 17:04:58;;;;;;;10.45;6.35;;;;;;;;;;5070237;28;19920;-66
2021/10/28 17:07:25;;;;;;;11.27;7.07;;;;;;;;;;5071220;28;20048;-64
2021/10/28 17:09:52;;;;;;;10.95;6.35;;;;;;;;;;5071972;28;20041;-65
2021/10/28 17:12:19;;;;;;;15.02;6.57;;;;;;;;;;5074312;28;20380;-61
2021/10/28 17:14:45;;;;;;;8.88;6.03;;;;;;;;;;5073369;28;20040;-60
2021/10/28 17:17:11;;;;;;;11.40;7.32;;;;;;;;;;5073999;28;20041;-61
2021/10/28 17:19:37;;;;;;;11.85;6.45;;;;;;;;;;5092532;28;20047;-65
2021/10/28 17:22:04;;;;;;;12.82;6.68;;;;;;;;;;5070301;28;20204;-73
2021/10/28 17:24:36;;;;;;;14.10;6.87;;;;;;;;;;5077835;28;20054;-74
2021/10/28 17:27:02;;;;;;;12.82;7.00;;;;;;;;;;5075219;28;20327;-72
2021/10/28 17:29:28;;;;;;;11.85;6.90;;;;;;;;;;5075446;28;20091;-68
2021/10/28 17:31:56;;;;;;;12.00;7.25;;;;;;;;;;5071592;28;20139;-68
2021/10/28 17:34:23;;;;;;;10.88;6.82;;;;;;;;;;5079647;28;20060;-70
2021/10/28 17:36:52;;;;;;;11.10;7.35;;;;;;;;;;5068065;28;20445;-71
2021/10/28 17:39:20;;;;;;;10.73;6.90;;;;;;;;;;5078849;28;20060;-66
2021/10/28 17:41:47;;;;;;;11.05;7.25;;;;;;;;;;5069879;28;20105;-68
2021/10/28 17:44:13;;;;;;;15.93;7.57;;;;;;;;;;5075139;28;20096;-67
2021/10/28 17:46:39;;;;;;;9.07;7.00;;;;;;;;;;5072054;28;20128;-65
2021/10/28 17:49:05;;;;;;;11.13;6.53;;;;;;;;;;5078938;28;20049;-65
2021/10/28 17:51:31;;;;;;;12.65;7.78;;;;;;;;;;5075991;28;20552;-65
2021/10/28 17:53:57;;;;;;;13.50;7.53;;;;;;;;;;5073179;28;20045;-65
2021/10/28 17:56:23;;;;;;;12.40;7.22;;;;;;;;;;5075073;28;20045;-65
2021/10/28 17:58:50;;;;;;;12.00;6.57;;;;;;;;;;5076418;28;20098;-65
2021/10/28 18:01:19;;;;;;;15.05;7.60;;;;;;;;;;5073901;28;20048;-66
2021/10/28 18:03:46;;;;;;;14.38;7.78;;;;;;;;;;5077368;28;20064;-65
2021/10/28 18:06:12;;;;;;;8.77;6.63;;;;;;;;;;5071132;28;20049;-69
2021/10/28 18:08:38;;;;;;;12.18;7.35;;;;;;;;;;5076638;28;20036;-68
2021/10/28 18:11:04;;;;;;;12.90;7.65;;;;;;;;;;5072380;28;20043;-73
2021/10/28 18:13:30;;;;;;;12.63;8.05;;;;;;;;;;5075256;28;20036;-69
2021/10/28 18:15:57;;;;;;;12.32;7.00;;;;;;;;;;5074072;28;20092;-68
2021/10/28 18:18:23;;;;;;;14.15;8.70;;;;;;;;;;5078202;28;20052;-70
2021/10/28 18:20:49;;;;;;;10.95;7.57;;;;;;;;;;5075621;28;20063;-67
2021/10/28 18:23:16;;;;;;;11.45;7.07;;;;;;;;;;5075954;28;20040;-66
2021/10/28 18:25:42;;;;;;;11.05;7.35;;;;;;;;;;5073100;28;20084;-70
2021/10/28 18:28:09;;;;;;;11.82;7.10;;;;;;;;;;5069168;28;20072;-68
2021/10/28 18:30:37;;;;;;;12.93;7.82;;;;;;;;;;5091995;28;20045;-67
2021/10/28 18:33:03;;;;;;;10.07;7.10;;;;;;;;;;5078058;28;20087;-67
2021/10/28 18:35:30;;;;;;;14.43;8.23;;;;;;;;;;5078039;28;20052;-66
2021/10/28 18:37:56;;;;;;;11.88;8.07;;;;;;;;;;5078216;28;20040;-67
2021/10/28 18:40:22;;;;;;;11.45;7.72;;;;;;;;;;5068547;28;20072;-62
2021/10/28 18:42:49;;;;;;;10.32;7.65;;;;;;;;;;5070702;28;20040;-62
2021/10/28 18:45:15;;;;;;;11.90;7.27;;;;;;;;;;5071955;28;20044;-62
2021/10/28 18:47:43;;;;;;;13.45;7.90;;;;;;;;;;5065753;28;20094;-62
2021/10/28 18:50:09;;;;;;;13.05;8.18;;;;;;;;;;5078314;28;20044;-62
2021/10/28 18:52:36;;;;;;;14.65;7.20;;;;;;;;;;5069930;28;20041;-63
2021/10/28 18:55:02;;;;;;;13.18;8.27;;;;;;;;;;5070323;28;20575;-62
2021/10/28 18:57:28;;;;;;;13.88;7.85;;;;;;;;;;5070442;28;20048;-62
2021/10/28 18:59:55;;;;;;;14.77;8.55;;;;;;;;;;5074778;28;20056;-62
2021/10/28 19:02:24;;;;;;;12.27;7.28;;;;;;;;;;5072240;28;20041;-62
2021/10/28 19:04:50;;;;;;;13.63;8.20;;;;;;;;;;5069689;28;20056;-62
2021/10/28 19:07:16;;;;;;;14.77;8.07;;;;;;;;;;5071557;28;20100;-62
2021/10/28 19:09:43;;;;;;;17.10;8.75;;;;;;;;;;5071862;28;20187;-62
2021/10/28 19:12:09;;;;;;;14.00;7.85;;;;;;;;;;5076004;28;20115;-62
2021/10/28 19:14:42;;;;;;;11.07;7.75;;;;;;;;;;5067537;28;20123;-62
2021/10/28 19:17:08;;;;;;;15.35;7.80;;;;;;;;;;5069915;28;20090;-62
2021/10/28 19:19:34;;;;;;;15.25;8.43;;;;;;;;;;5063976;28;20048;-62
2021/10/28 19:22:00;;;;;;;12.73;8.07;;;;;;;;;;5068714;28;20044;-62
2021/10/28 19:24:26;;;;;;;12.63;7.75;;;;;;;;;;5081792;28;20487;-62
2021/10/28 19:26:52;;;;;;;15.10;8.00;;;;;;;;;;5073145;28;20128;-62
2021/10/28 19:29:20;;;;;;;14.18;8.40;;;;;;;;;;5073670;28;20037;-62
2021/10/28 19:32:00;;;;;;;15.73;8.98;;;;;;;;;;5071573;28;20040;-62
2021/10/28 19:34:33;;;;;;;15.65;8.48;;;;;;;;;;5069681;28;20060;-62
2021/10/28 19:37:06;;;;;;;12.80;8.25;;;;;;;;;;5068481;28;20056;-62
2021/10/28 19:39:50;;;;;;;11.10;8.15;;;;;;;;;;5073205;28;20093;-62
2021/10/28 19:47:30;;;;;;;12.32;8.85;;;;;;;;;;5068540;28;20040;-63
2021/10/28 19:49:56;;;;;;;14.65;9.07;;;;;;;;;;5074428;28;20145;-63
2021/10/28 19:52:23;;;;;;;14.35;9.20;;;;;;;;;;5069863;28;20446;-62
2021/10/28 19:54:50;;;;;;;15.32;9.75;;;;;;;;;;5069099;28;20048;-62
2021/10/28 19:57:22;;;;;;;15.63;9.98;;;;;;;;;;5074290;28;20070;-62
2021/10/28 19:59:54;;;;;;;14.98;9.93;;;;;;;;;;5066443;28;20048;-62
2021/10/28 20:02:41;;;;;;;14.73;9.40;;;;;;;;;;5072154;28;20045;-62
2021/10/28 20:05:22;;;;;;;15.05;10.10;;;;;;;;;;5068810;28;20045;-62
2021/10/28 20:21:05;;;;;;;17.75;10.68;;;;;;;;;;5071111;28;20094;-62
2021/10/28 20:23:31;;;;;;;15.43;11.05;;;;;;;;;;5085759;28;20052;-62
2021/10/28 20:25:58;;;;;;;18.13;11.07;;;;;;;;;;5072023;28;20503;-62
2021/10/28 20:28:25;;;;;;;19.20;11.15;;;;;;;;;;5069999;28;20068;-62
2021/10/28 20:30:58;;;;;;;19.70;12.10;;;;;;;;;;5069877;28;20040;-62
2021/10/28 20:33:29;;;;;;;17.27;11.38;;;;;;;;;;5073905;28;20060;-62
2021/10/28 20:38:34;;;;;;;;;;;;;;;;;;5065905;28;20048;-68
2021/10/28 20:41:00;;;;;;;15.75;10.80;;;;;;;;;;5063573;28;19928;-67
2021/10/28 20:43:26;;;;;;;21.02;12.30;;;;;;;;;;5070146;28;20044;-67
2021/10/28 20:45:52;;;;;;;16.35;11.63;;;;;;;;;;5069107;28;20501;-64
2021/10/28 20:48:18;;;;;;;18.50;12.13;;;;;;;;;;5070431;28;20056;-65
2021/10/28 20:50:44;;;;;;;16.73;11.60;;;;;;;;;;5069743;28;20063;-63
2021/10/28 20:53:10;;;;;;;17.92;11.55;;;;;;;;;;5070096;28;20037;-65
2021/10/28 20:55:37;;;;;;;16.02;11.27;;;;;;;;;;5066788;28;20044;-67
2021/10/28 20:58:03;;;;;;;22.90;11.90;;;;;;;;;;5067273;28;20562;-66
2021/10/28 21:00:30;;;;;;;18.33;11.80;;;;;;;;;;5069950;28;20044;-73
2021/10/28 21:02:59;;;;;;;17.58;11.90;;;;;;;;;;5070846;28;20045;-75
2021/10/28 21:05:25;;;;;;;19.15;12.75;;;;;;;;;;5067552;28;20045;-67
2021/10/28 21:07:52;;;;;;;14.70;11.57;;;;;;;;;;5077237;28;21299;-67
2021/10/28 21:10:23;;;;;;;20.20;12.90;;;;;;;;;;5073614;28;20041;-69
2021/10/28 21:12:49;;;;;;;15.63;11.25;;;;;;;;;;5077783;28;20044;-69
2021/10/28 21:15:16;;;;;;;21.90;11.48;;;;;;;;;;5076245;28;20076;-69
2021/10/28 21:17:43;;;;;;;15.95;11.50;;;;;;;;;;5077967;28;20075;-69
2021/10/28 21:20:10;;;;;;;16.63;12.27;;;;;;;;;;5078723;28;20087;-69
2021/10/28 21:22:37;;;;;;;17.48;12.55;;;;;;;;;;5078722;28;20048;-70
2021/10/28 21:25:04;;;;;;;19.88;12.52;;;;;;;;;;5077065;28;20037;-69
2021/10/28 21:27:30;;;;;;;19.95;13.23;;;;;;;;;;5078274;28;20048;-70
2021/10/28 21:29:56;;;;;;;21.25;13.55;;;;;;;;;;5078387;28;20048;-70
2021/10/28 21:32:23;;;;;;;21.00;13.43;;;;;;;;;;5070278;28;20056;-70
2021/10/28 21:34:49;;;;;;;18.92;11.93;;;;;;;;;;5083050;28;20484;-69
2021/10/28 21:37:16;;;;;;;21.55;12.70;;;;;;;;;;5082197;28;20041;-69
2021/10/28 21:39:43;;;;;;;23.20;12.83;;;;;;;;;;5074833;28;20391;-69
2021/10/28 21:42:10;;;;;;;18.95;13.40;;;;;;;;;;5072011;28;20052;-69
2021/10/28 21:44:37;;;;;;;17.38;12.07;;;;;;;;;;5075661;28;20489;-69
2021/10/28 21:47:04;;;;;;;20.43;12.87;;;;;;;;;;5080324;28;20048;-69
2021/10/28 21:49:30;;;;;;;20.40;12.50;;;;;;;;;;5078395;28;20040;-69
2021/10/28 21:52:07;;;;;;;22.20;13.90;;;;;;;;;;5077539;28;20404;-69
2021/10/28 21:54:40;;;;;;;23.50;13.77;;;;;;;;;;5074860;28;20232;-69
2021/10/28 21:57:20;;;;;;;20.73;12.80;;;;;;;;;;5076260;28;20044;-69
2021/10/28 22:00:02;;;;;;;19.50;13.05;;;;;;;;;;5075581;28;20131;-69
2021/10/28 22:26:43;;;;;;;20.50;13.30;;;;;;;;;;5077561;28;20059;-69
2021/10/28 22:29:09;;;;;;;20.58;14.00;;;;;;;;;;5077393;28;20140;-69
2021/10/28 22:31:35;;;;;;;25.08;15.50;;;;;;;;;;5072583;28;20128;-68
2021/10/28 22:34:01;;;;;;;23.25;15.48;;;;;;;;;;5075713;28;20136;-69
2021/10/28 22:36:53;;;;;;;23.80;15.95;;;;;;;;;;5074736;28;20265;-69
2021/10/28 22:39:24;;;;;;;20.73;14.77;;;;;;;;;;5073540;28;20084;-68
2021/10/28 22:41:51;;;;;;;23.20;14.57;;;;;;;;;;5078148;28;20493;-69
2021/10/28 22:44:17;;;;;;;21.38;14.60;;;;;;;;;;5080644;28;20052;-69
2021/10/28 22:46:43;;;;;;;26.67;14.82;;;;;;;;;;5077863;28;20037;-68
2021/10/28 22:49:09;;;;;;;24.05;15.70;;;;;;;;;;5074137;28;20056;-68
2021/10/28 22:51:35;;;;;;;24.15;15.38;;;;;;;;;;5076835;28;20048;-68
2021/10/28 22:54:02;;;;;;;21.42;15.43;;;;;;;;;;5073946;28;20104;-68
2021/10/28 22:56:29;;;;;;;26.63;16.25;;;;;;;;;;5074792;28;20048;-68
2021/10/28 22:59:02;;;;;;;24.42;15.80;;;;;;;;;;5078316;28;20104;-68
2021/10/28 23:01:53;;;;;;;21.70;13.85;;;;;;;;;;5073430;28;20161;-69
2021/10/28 23:04:34;;;;;;;22.70;16.85;;;;;;;;;;5076382;28;20443;-68
2021/10/28 23:22:46;;;;;;;25.30;16.58;;;;;;;;;;5075211;28;20051;-68
2021/10/28 23:25:12;;;;;;;23.98;16.40;;;;;;;;;;5073289;28;20213;-69
2021/10/28 23:27:38;;;;;;;28.30;17.65;;;;;;;;;;5070249;28;20102;-68
2021/10/28 23:30:06;;;;;;;27.20;17.23;;;;;;;;;;5071177;28;20999;-68
2021/10/28 23:32:32;;;;;;;;;;;;;;;;;;5071817;28;20040;-69
2021/10/28 23:34:58;;;;;;;27.27;17.05;;;;;;;;;;5067711;28;19921;-69
2021/10/28 23:37:24;;;;;;;24.95;16.70;;;;;;;;;;5088769;28;20063;-69
2021/10/28 23:39:50;;;;;;;29.00;17.05;;;;;;;;;;5076157;28;20123;-68
2021/10/28 23:42:16;;;;;;;30.10;18.38;;;;;;;;;;5068955;28;20146;-68
2021/10/28 23:44:42;;;;;;;28.60;16.92;;;;;;;;;;5079302;28;20067;-70
2021/10/28 23:47:08;;;;;;;23.88;16.02;;;;;;;;;;5070160;28;20108;-69
2021/10/28 23:49:34;;;;;;;32.40;17.73;;;;;;;;;;5076946;28;20043;-69
2021/10/28 23:52:00;;;;;;;26.38;17.00;;;;;;;;;;5070426;28;20040;-69
2021/10/28 23:54:26;;;;;;;24.83;17.52;;;;;;;;;;5068690;28;20084;-69
2021/10/28 23:56:53;;;;;;;28.73;18.08;;;;;;;;;;5078689;28;20045;-69
2021/10/28 23:59:19;;;;;;;25.30;17.65;;;;;;;;;;5068595;28;20581;-69
